createdAt,value
2022-07-29T00:00:04.950Z,2.42
2022-07-29T00:02:34.920Z,2.10
2022-07-29T00:05:03.821Z,2.47
2022-07-29T00:07:32.506Z,2.80
2022-07-29T00:10:01.130Z,2.15
2022-07-29T00:12:30.020Z,2.75
2022-07-29T00:14:59.603Z,2.50
2022-07-29T00:17:28.659Z,2.28
2022-07-29T00:19:56.756Z,2.42
2022-07-29T00:22:25.854Z,2.45
2022-07-29T00:24:54.542Z,2.40
2022-07-29T00:27:24.127Z,2.33
2022-07-29T00:29:52.988Z,2.28
2022-07-29T00:32:21.662Z,2.10
2022-07-29T00:35:09.095Z,2.80
2022-07-29T00:37:38.054Z,2.30
2022-07-29T00:40:07.077Z,2.60
2022-07-29T00:42:55.948Z,2.60
2022-07-29T00:45:24.587Z,2.45
2022-07-29T00:47:53.353Z,2.40
2022-07-29T00:50:22.161Z,2.50
2022-07-29T00:52:51.099Z,2.53
2022-07-29T00:55:19.604Z,2.55
2022-07-29T00:57:49.084Z,2.30
2022-07-29T01:00:21.827Z,2.75
2022-07-29T01:02:51.182Z,3.00
2022-07-29T01:05:49.686Z,2.55
2022-07-29T01:08:17.944Z,2.58
2022-07-29T01:10:48.649Z,2.50
2022-07-29T01:13:18.968Z,2.40
2022-07-29T01:15:52.517Z,2.20
2022-07-29T01:18:31.053Z,2.20
2022-07-29T01:21:08.633Z,2.28
2022-07-29T01:23:43.337Z,2.35
2022-07-29T01:26:27.999Z,2.53
2022-07-29T01:29:08.695Z,2.78
2022-07-29T01:31:59.714Z,2.40
2022-07-29T01:34:51.399Z,2.33
2022-07-29T01:37:35.976Z,2.10
2022-07-29T01:40:07.384Z,2.28
2022-07-29T01:42:44.626Z,2.33
2022-07-29T01:45:28.263Z,2.30
2022-07-29T01:47:59.441Z,2.42
2022-07-29T01:50:36.767Z,2.40
2022-07-29T01:53:09.345Z,2.40
2022-07-29T01:55:42.903Z,2.63
2022-07-29T01:58:13.507Z,2.30
2022-07-29T02:00:43.700Z,2.55
2022-07-29T02:03:14.539Z,2.30
2022-07-29T02:05:47.572Z,2.60
2022-07-29T02:08:19.175Z,2.35
2022-07-29T02:10:48.386Z,2.35
2022-07-29T02:13:19.484Z,2.72
2022-07-29T02:15:49.660Z,2.15
2022-07-29T02:18:24.846Z,2.50
2022-07-29T02:20:55.694Z,2.22
2022-07-29T02:23:26.770Z,2.53
2022-07-29T02:26:00.417Z,2.40
2022-07-29T02:28:31.444Z,2.38
2022-07-29T02:31:03.553Z,2.50
2022-07-29T02:33:34.280Z,2.53
2022-07-29T02:36:05.421Z,2.78
2022-07-29T02:38:56.548Z,3.47
2022-07-29T02:41:36.003Z,2.40
2022-07-29T02:44:36.707Z,2.63
2022-07-29T02:47:25.207Z,2.50
2022-07-29T02:50:00.781Z,2.58
2022-07-29T02:52:55.012Z,2.60
2022-07-29T02:55:32.214Z,2.75
2022-07-29T02:58:04.593Z,2.55
2022-07-29T03:00:38.137Z,2.80
2022-07-29T03:03:12.015Z,2.78
2022-07-29T03:05:41.838Z,2.30
2022-07-29T03:08:14.543Z,2.40
2022-07-29T03:10:46.426Z,2.60
2022-07-29T03:13:15.892Z,2.60
2022-07-29T03:15:48.277Z,2.60
2022-07-29T03:18:17.896Z,2.70
2022-07-29T03:20:46.801Z,2.63
2022-07-29T03:23:22.050Z,2.60
2022-07-29T03:25:51.326Z,2.53
2022-07-29T03:28:19.904Z,2.60
2022-07-29T03:30:49.091Z,2.95
2022-07-29T03:33:18.573Z,2.28
2022-07-29T03:35:47.744Z,2.70
2022-07-29T03:38:16.317Z,2.40
2022-07-29T03:40:54.150Z,2.58
2022-07-29T03:43:26.206Z,2.55
2022-07-29T03:45:57.667Z,2.72
2022-07-29T03:48:27.838Z,2.42
2022-07-29T03:50:56.267Z,2.45
2022-07-29T03:53:25.689Z,2.38
2022-07-29T03:56:00.441Z,2.90
2022-07-29T03:58:30.162Z,2.58
2022-07-29T04:00:59.321Z,2.63
2022-07-29T04:03:28.387Z,2.40
2022-07-29T04:06:10.882Z,3.10
2022-07-29T04:11:08.277Z,2.25
2022-07-29T04:13:36.936Z,2.72
2022-07-29T04:16:05.861Z,2.60
2022-07-29T04:18:35.103Z,2.30
2022-07-29T04:21:03.810Z,2.75
2022-07-29T04:23:36.145Z,2.72
2022-07-29T04:26:22.765Z,2.20
2022-07-29T04:28:51.504Z,2.55
2022-07-29T04:31:25.308Z,2.92
2022-07-29T04:33:54.190Z,2.38
2022-07-29T04:36:29.457Z,2.58
2022-07-29T04:38:59.667Z,2.95
2022-07-29T04:41:33.438Z,2.70
2022-07-29T04:44:07.684Z,2.70
2022-07-29T04:46:38.115Z,3.08
2022-07-29T04:49:06.851Z,2.80
2022-07-29T04:51:35.778Z,2.97
2022-07-29T04:54:04.210Z,2.50
2022-07-29T04:56:32.878Z,2.65
2022-07-29T04:59:01.438Z,2.92
2022-07-29T05:01:30.113Z,2.45
2022-07-29T05:04:00.743Z,2.90
2022-07-29T05:06:29.616Z,2.67
2022-07-29T05:08:58.288Z,3.40
2022-07-29T05:11:30.077Z,2.95
2022-07-29T05:13:59.178Z,3.20
2022-07-29T05:16:27.673Z,3.08
2022-07-29T05:18:56.329Z,2.92
2022-07-29T05:21:24.970Z,2.55
2022-07-29T05:23:53.563Z,2.90
2022-07-29T05:26:22.136Z,2.88
2022-07-29T05:28:50.855Z,2.47
2022-07-29T05:31:19.585Z,2.85
2022-07-29T05:33:48.222Z,2.70
2022-07-29T05:36:16.917Z,2.92
2022-07-29T05:38:45.642Z,3.17
2022-07-29T05:41:14.189Z,2.60
2022-07-29T05:43:42.867Z,4.60
2022-07-29T05:46:11.132Z,2.78
2022-07-29T05:48:41.148Z,3.00
2022-07-29T05:51:09.576Z,3.63
2022-07-29T05:53:38.158Z,3.45
2022-07-29T05:56:07.692Z,3.22
2022-07-29T05:58:36.264Z,2.90
2022-07-29T06:01:05.334Z,2.85
2022-07-29T06:03:33.936Z,3.17
2022-07-29T06:06:03.223Z,2.85
2022-07-29T06:08:31.817Z,2.85
2022-07-29T06:11:00.433Z,3.22
2022-07-29T06:13:29.098Z,4.30
2022-07-29T06:15:57.522Z,3.38
2022-07-29T06:18:26.426Z,2.78
2022-07-29T06:20:56.033Z,3.47
2022-07-29T06:23:24.684Z,2.80
2022-07-29T06:25:53.188Z,4.60
2022-07-29T06:28:21.883Z,3.17
2022-07-29T06:30:50.594Z,2.70
2022-07-29T06:33:21.025Z,3.35
2022-07-29T06:35:53.233Z,2.80
2022-07-29T06:38:31.743Z,3.28
2022-07-29T06:41:04.899Z,3.05
2022-07-29T06:43:50.829Z,3.15
2022-07-29T06:46:24.265Z,3.22
2022-07-29T06:48:53.667Z,3.08
2022-07-29T06:51:24.003Z,2.80
2022-07-29T06:53:58.093Z,2.70
2022-07-29T06:56:27.981Z,4.13
2022-07-29T06:58:56.602Z,2.75
2022-07-29T07:01:25.208Z,3.45
2022-07-29T07:03:53.872Z,3.20
2022-07-29T07:06:22.670Z,3.80
2022-07-29T07:08:51.271Z,2.55
2022-07-29T07:11:19.876Z,3.03
2022-07-29T07:13:48.487Z,3.20
2022-07-29T07:16:17.181Z,3.03
2022-07-29T07:18:47.475Z,3.42
2022-07-29T07:21:18.765Z,3.55
2022-07-29T07:23:47.600Z,3.13
2022-07-29T07:26:17.111Z,2.97
2022-07-29T07:28:45.780Z,4.03
2022-07-29T07:31:14.977Z,3.50
2022-07-29T07:33:43.622Z,3.58
2022-07-29T07:36:12.657Z,3.55
2022-07-29T07:38:41.192Z,3.72
2022-07-29T07:41:09.815Z,3.67
2022-07-29T07:43:38.619Z,3.60
2022-07-29T07:46:07.487Z,3.63
2022-07-29T07:48:58.321Z,3.45
2022-07-29T07:51:28.006Z,3.55
2022-07-29T07:53:56.840Z,3.10
2022-07-29T07:56:26.323Z,3.78
2022-07-29T07:58:54.923Z,3.13
2022-07-29T08:01:25.195Z,3.03
2022-07-29T08:03:53.786Z,4.05
2022-07-29T08:06:22.651Z,3.50
2022-07-29T08:08:51.998Z,3.63
2022-07-29T08:11:20.683Z,3.40
2022-07-29T08:13:49.727Z,3.47
2022-07-29T08:16:18.320Z,4.55
2022-07-29T08:18:48.365Z,3.67
2022-07-29T08:21:17.899Z,3.40
2022-07-29T08:23:54.394Z,3.53
2022-07-29T08:26:27.722Z,3.28
2022-07-29T08:28:56.628Z,3.58
2022-07-29T08:31:25.383Z,3.33
2022-07-29T08:33:54.115Z,3.92
2022-07-29T08:36:23.207Z,3.65
2022-07-29T08:38:51.285Z,3.65
2022-07-29T08:41:21.412Z,3.78
2022-07-29T08:43:51.502Z,4.00
2022-07-29T08:46:20.901Z,3.38
2022-07-29T08:48:49.931Z,4.20
2022-07-29T08:51:21.378Z,3.80
2022-07-29T08:53:51.560Z,4.00
2022-07-29T08:56:21.699Z,3.67
2022-07-29T08:58:52.706Z,4.05
2022-07-29T09:01:35.160Z,3.40
2022-07-29T09:04:12.968Z,3.72
2022-07-29T09:06:46.547Z,3.95
2022-07-29T09:09:17.170Z,3.75
2022-07-29T09:11:46.215Z,3.70
2022-07-29T09:14:16.106Z,3.58
2022-07-29T09:16:53.998Z,3.58
2022-07-29T09:19:30.673Z,3.65
2022-07-29T09:22:02.347Z,4.15
2022-07-29T09:24:49.359Z,4.68
2022-07-29T09:27:24.999Z,3.75
2022-07-29T09:30:01.577Z,4.07
2022-07-29T09:32:31.895Z,4.03
2022-07-29T09:35:25.074Z,4.40
2022-07-29T09:40:27.103Z,4.18
2022-07-29T09:42:59.609Z,4.32
2022-07-29T09:45:33.459Z,4.38
2022-07-29T09:48:15.968Z,4.70
2022-07-29T09:50:46.890Z,3.67
2022-07-29T09:53:33.290Z,3.65
2022-07-29T09:56:02.371Z,4.47
2022-07-29T09:58:31.239Z,4.10
2022-07-29T10:00:59.965Z,4.10
2022-07-29T10:03:29.508Z,4.20
2022-07-29T10:06:15.744Z,4.60
2022-07-29T10:08:44.733Z,4.80
2022-07-29T10:11:17.483Z,3.80
2022-07-29T10:16:16.329Z,4.00
2022-07-29T10:18:45.936Z,4.07
2022-07-29T10:21:35.493Z,4.57
2022-07-29T10:24:04.302Z,3.83
2022-07-29T10:26:33.302Z,4.20
2022-07-29T10:29:02.829Z,4.20
2022-07-29T10:32:08.520Z,3.90
2022-07-29T10:35:15.022Z,3.95
2022-07-29T10:38:05.759Z,3.85
2022-07-29T10:40:52.651Z,4.65
2022-07-29T10:43:32.167Z,5.20
2022-07-29T10:46:03.364Z,4.55
2022-07-29T10:48:37.233Z,4.82
2022-07-29T10:51:10.507Z,3.77
2022-07-29T10:53:53.771Z,4.75
2022-07-29T10:56:32.291Z,4.05
2022-07-29T10:59:22.889Z,5.18
2022-07-29T11:07:45.678Z,4.20
2022-07-29T11:10:18.054Z,4.68
2022-07-29T11:12:50.095Z,4.90
2022-07-29T11:15:25.107Z,4.47
2022-07-29T11:17:59.392Z,5.13
2022-07-29T11:20:47.797Z,4.85
2022-07-29T11:23:42.862Z,4.30
2022-07-29T11:26:34.754Z,6.60
2022-07-29T11:29:06.929Z,5.03
2022-07-29T11:31:40.269Z,6.32
2022-07-29T11:34:29.771Z,5.07
2022-07-29T11:40:12.179Z,6.25
2022-07-29T11:42:44.599Z,6.30
2022-07-29T11:45:44.231Z,6.20
2022-07-29T11:48:29.444Z,6.68
2022-07-29T11:50:59.657Z,7.70
2022-07-29T11:53:28.719Z,7.30
2022-07-29T11:55:58.721Z,6.88
2022-07-29T11:58:28.455Z,7.20
2022-07-29T12:00:57.295Z,6.80
2022-07-29T12:03:33.365Z,6.22
2022-07-29T12:06:18.342Z,7.82
2022-07-29T12:07:01.663Z,5.38
2022-07-29T12:08:49.736Z,6.95
2022-07-29T12:11:21.726Z,6.82
2022-07-29T12:13:51.465Z,5.53
2022-07-29T12:16:25.423Z,6.70
2022-07-29T12:19:07.156Z,5.85
2022-07-29T12:21:54.003Z,6.13
2022-07-29T12:24:26.950Z,5.50
2022-07-29T12:27:00.880Z,5.07
2022-07-29T12:29:34.728Z,5.50
2022-07-29T12:32:14.250Z,5.10
2022-07-29T12:34:43.655Z,5.28
2022-07-29T12:37:13.190Z,5.05
2022-07-29T12:39:41.622Z,4.82
2022-07-29T12:42:18.291Z,5.65
2022-07-29T12:44:52.146Z,5.07
2022-07-29T12:47:22.190Z,5.00
2022-07-29T12:49:51.630Z,5.18
2022-07-29T12:52:35.024Z,5.25
2022-07-29T12:55:04.747Z,5.03
2022-07-29T12:57:34.021Z,5.00
2022-07-29T13:00:06.496Z,4.88
2022-07-29T13:02:35.289Z,5.43
2022-07-29T13:05:08.519Z,5.13
2022-07-29T13:07:54.277Z,5.00
2022-07-29T13:10:24.952Z,5.40
2022-07-29T13:13:05.710Z,5.60
2022-07-29T13:15:36.207Z,5.43
2022-07-29T13:18:06.348Z,5.45
2022-07-29T13:20:35.208Z,5.53
2022-07-29T13:23:03.983Z,5.72
2022-07-29T13:25:34.507Z,4.97
2022-07-29T13:28:03.048Z,5.13
2022-07-29T13:30:31.680Z,5.10
2022-07-29T13:33:00.101Z,5.38
2022-07-29T13:35:31.995Z,5.55
2022-07-29T13:38:00.617Z,4.73
2022-07-29T13:40:32.514Z,5.57
2022-07-29T13:43:01.385Z,5.07
2022-07-29T13:45:29.963Z,4.95
2022-07-29T13:47:58.567Z,5.22
2022-07-29T13:50:27.161Z,5.00
2022-07-29T13:52:55.789Z,6.00
2022-07-29T13:55:24.519Z,4.72
2022-07-29T13:57:54.220Z,4.60
2022-07-29T14:00:23.155Z,4.97
2022-07-29T14:02:52.037Z,4.70
2022-07-29T14:05:20.618Z,4.80
2022-07-29T14:07:49.223Z,4.40
2022-07-29T14:10:20.139Z,5.20
2022-07-29T14:12:48.930Z,4.88
2022-07-29T14:15:17.523Z,4.85
2022-07-29T14:17:46.139Z,4.68
2022-07-29T14:20:14.511Z,4.75
2022-07-29T14:22:45.056Z,4.53
2022-07-29T14:25:15.550Z,4.65
2022-07-29T14:27:46.125Z,4.70
2022-07-29T14:30:17.773Z,4.88
2022-07-29T14:32:46.145Z,4.60
2022-07-29T14:35:15.396Z,5.05
2022-07-29T14:37:44.326Z,4.35
2022-07-29T14:40:13.351Z,4.47
2022-07-29T14:42:42.408Z,4.38
2022-07-29T14:45:12.035Z,4.80
2022-07-29T14:47:41.423Z,4.38
2022-07-29T14:50:11.183Z,4.78
2022-07-29T14:52:39.829Z,4.80
2022-07-29T14:55:19.721Z,4.65
2022-07-29T14:57:50.064Z,4.60
2022-07-29T15:00:19.079Z,5.07
2022-07-29T15:03:01.381Z,4.35
2022-07-29T15:05:32.025Z,4.57
2022-07-29T15:08:01.316Z,4.10
2022-07-29T15:10:30.285Z,4.72
2022-07-29T15:12:59.566Z,4.60
2022-07-29T15:15:28.521Z,4.70
2022-07-29T15:17:57.492Z,4.47
2022-07-29T15:20:28.014Z,4.50
2022-07-29T15:23:00.617Z,5.47
2022-07-29T15:25:29.310Z,4.85
2022-07-29T15:28:01.473Z,5.10
2022-07-29T15:33:06.051Z,5.95
2022-07-29T15:35:40.051Z,4.93
2022-07-29T15:38:10.747Z,5.00
2022-07-29T15:40:43.405Z,4.88
2022-07-29T15:43:12.091Z,4.80
2022-07-29T15:45:42.492Z,4.97
2022-07-29T15:48:13.270Z,5.22
2022-07-29T15:53:15.597Z,5.25
2022-07-29T15:55:44.490Z,5.40
2022-07-29T15:58:13.201Z,5.32
2022-07-29T16:00:41.832Z,4.95
2022-07-29T16:03:10.520Z,5.38
2022-07-29T16:05:39.324Z,5.35
2022-07-29T16:08:08.100Z,5.80
2022-07-29T16:10:36.830Z,5.85
2022-07-29T16:13:05.575Z,6.00
2022-07-29T16:15:34.353Z,6.28
2022-07-29T16:18:03.158Z,6.35
2022-07-29T16:20:31.735Z,5.47
2022-07-29T16:23:00.321Z,5.78
2022-07-29T16:25:50.212Z,6.07
2022-07-29T16:28:18.592Z,5.93
2022-07-29T16:30:47.220Z,6.32
2022-07-29T16:33:15.716Z,6.00
2022-07-29T16:35:44.323Z,5.70
2022-07-29T16:38:13.431Z,5.95
2022-07-29T16:40:42.092Z,5.65
2022-07-29T16:43:10.856Z,6.25
2022-07-29T16:45:45.273Z,5.55
2022-07-29T16:48:17.303Z,6.07
2022-07-29T16:50:47.158Z,5.97
2022-07-29T16:53:15.971Z,5.65
2022-07-29T16:55:44.849Z,6.53
2022-07-29T16:58:13.594Z,6.32
2022-07-29T17:00:42.451Z,7.55
2022-07-29T17:03:10.914Z,6.63
2022-07-29T17:05:52.526Z,6.07
2022-07-29T17:08:23.627Z,6.32
2022-07-29T17:10:52.378Z,7.00
2022-07-29T17:13:21.158Z,7.05
2022-07-29T17:15:49.846Z,6.75
2022-07-29T17:18:18.524Z,7.10
2022-07-29T17:20:47.810Z,7.20
2022-07-29T17:23:16.367Z,7.90
2022-07-29T17:25:44.399Z,6.57
2022-07-29T17:28:12.453Z,7.38
2022-07-29T17:30:40.979Z,7.88
2022-07-29T17:33:09.110Z,7.82
2022-07-29T17:35:55.451Z,7.82
2022-07-29T17:38:24.756Z,8.07
2022-07-29T17:40:53.287Z,7.90
2022-07-29T17:43:21.910Z,8.38
2022-07-29T17:45:50.960Z,8.18
2022-07-29T17:48:20.519Z,8.45
2022-07-29T17:50:50.290Z,8.38
2022-07-29T17:53:19.121Z,10.07
2022-07-29T17:55:49.890Z,9.18
2022-07-29T17:58:18.871Z,9.65
2022-07-29T18:00:47.489Z,9.75
2022-07-29T18:03:16.717Z,8.60
2022-07-29T18:05:45.769Z,8.45
2022-07-29T18:08:14.649Z,8.98
2022-07-29T18:10:43.262Z,8.95
2022-07-29T18:13:15.283Z,10.05
2022-07-29T18:15:44.643Z,10.50
2022-07-29T18:18:17.194Z,10.00
2022-07-29T18:20:46.095Z,10.23
2022-07-29T18:23:17.229Z,9.43
2022-07-29T18:25:45.903Z,10.77
2022-07-29T18:28:14.567Z,10.35
2022-07-29T18:30:43.815Z,11.35
2022-07-29T18:33:21.337Z,10.65
2022-07-29T18:36:11.696Z,11.15
2022-07-29T18:38:42.410Z,10.48
2022-07-29T18:41:11.182Z,10.35
2022-07-29T18:43:39.752Z,11.77
2022-07-29T18:46:08.538Z,10.85
2022-07-29T18:48:37.247Z,12.13
2022-07-29T18:51:09.242Z,11.18
2022-07-29T18:56:06.442Z,11.77
2022-07-29T18:58:35.051Z,12.77
2022-07-29T19:01:03.781Z,12.25
2022-07-29T19:03:32.291Z,11.90
2022-07-29T19:06:00.875Z,12.23
2022-07-29T19:08:29.510Z,13.70
2022-07-29T19:10:58.291Z,13.65
2022-07-29T19:13:26.924Z,13.90
2022-07-29T19:15:55.649Z,13.25
2022-07-29T19:18:24.291Z,13.13
2022-07-29T19:20:52.932Z,14.10
2022-07-29T19:23:21.548Z,13.70
2022-07-29T19:25:53.899Z,13.65
2022-07-29T19:28:24.050Z,13.82
2022-07-29T19:30:53.405Z,13.43
2022-07-29T19:33:22.234Z,12.23
2022-07-29T19:35:54.728Z,13.50
2022-07-29T19:38:24.482Z,13.02
2022-07-29T19:40:53.675Z,13.93
2022-07-29T19:43:50.354Z,13.73
2022-07-29T19:46:10.928Z,14.27
2022-07-29T19:48:39.844Z,13.77
2022-07-29T19:51:08.520Z,13.57
2022-07-29T19:53:37.262Z,13.60
2022-07-29T19:56:06.118Z,13.25
2022-07-29T19:58:37.646Z,13.98
2022-07-29T20:01:10.566Z,13.15
2022-07-29T20:03:43.525Z,14.25
2022-07-29T20:06:12.341Z,13.07
2022-07-29T20:08:40.963Z,12.20
2022-07-29T20:11:09.636Z,13.68
2022-07-29T20:13:38.349Z,14.02
2022-07-29T20:16:09.394Z,13.15
2022-07-29T20:18:38.059Z,14.13
2022-07-29T20:21:06.666Z,13.75
2022-07-29T20:23:35.343Z,13.40
2022-07-29T20:26:08.759Z,13.02
2022-07-29T20:28:38.263Z,13.75
2022-07-29T20:31:07.088Z,13.13
2022-07-29T20:33:35.879Z,14.57
2022-07-29T20:36:05.228Z,13.15
2022-07-29T20:38:33.863Z,12.60
2022-07-29T20:41:02.670Z,11.48
2022-07-29T20:43:31.055Z,11.57
2022-07-29T20:46:04.874Z,11.63
2022-07-29T20:48:33.389Z,12.35
2022-07-29T20:51:02.047Z,12.30
2022-07-29T20:53:30.638Z,10.65
2022-07-29T20:55:59.248Z,11.13
2022-07-29T20:58:27.603Z,10.52
2022-07-29T21:00:57.641Z,12.88
2022-07-29T21:03:26.503Z,10.38
2022-07-29T21:05:55.210Z,10.82
2022-07-29T21:08:23.885Z,10.98
2022-07-29T21:10:52.794Z,10.40
2022-07-29T21:13:26.691Z,10.52
2022-07-29T21:15:59.984Z,10.45
2022-07-29T21:18:32.595Z,10.40
2022-07-29T21:21:06.260Z,10.27
2022-07-29T21:23:34.858Z,10.60
2022-07-29T21:26:03.555Z,10.15
2022-07-29T21:28:38.071Z,9.88
2022-07-29T21:31:18.189Z,9.13
2022-07-29T21:33:48.232Z,9.60
2022-07-29T21:39:08.328Z,9.52
2022-07-29T21:41:37.065Z,10.05
2022-07-29T21:44:05.719Z,9.30
2022-07-29T21:46:34.366Z,10.55
2022-07-29T21:49:03.066Z,10.38
2022-07-29T21:51:31.785Z,9.93
2022-07-29T21:54:00.489Z,10.35
2022-07-29T21:56:30.533Z,9.80
2022-07-29T21:59:00.257Z,10.90
2022-07-29T22:01:28.858Z,10.60
2022-07-29T22:04:07.378Z,10.38
2022-07-29T22:06:36.050Z,9.75
2022-07-29T22:09:04.792Z,11.07
2022-07-29T22:11:33.435Z,10.13
2022-07-29T22:14:02.131Z,10.60
2022-07-29T22:16:30.770Z,9.93
2022-07-29T22:18:59.363Z,11.15
2022-07-29T22:21:27.928Z,9.93
2022-07-29T22:23:55.952Z,10.80
2022-07-29T22:26:24.656Z,9.90
2022-07-29T22:28:53.265Z,9.27
2022-07-29T22:31:21.759Z,10.05
2022-07-29T22:33:54.045Z,9.32
2022-07-29T22:38:52.064Z,9.32
2022-07-29T22:41:20.938Z,10.63
2022-07-29T22:43:49.466Z,9.85
2022-07-29T22:46:18.233Z,10.00
2022-07-29T22:48:47.305Z,9.35
2022-07-29T22:51:15.846Z,9.77
2022-07-29T22:53:44.779Z,9.05
2022-07-29T22:56:13.398Z,8.05
2022-07-29T22:58:42.141Z,8.98
2022-07-29T23:01:10.748Z,8.55
2022-07-29T23:03:40.689Z,9.75
2022-07-29T23:06:19.724Z,9.05
2022-07-29T23:08:48.475Z,8.40
2022-07-29T23:11:17.087Z,8.88
2022-07-29T23:13:45.639Z,8.18
2022-07-29T23:16:14.404Z,8.27
2022-07-29T23:18:56.169Z,8.20
2022-07-29T23:21:25.000Z,8.52
2022-07-29T23:23:53.842Z,8.30
2022-07-29T23:26:22.415Z,8.02
2022-07-29T23:28:51.093Z,7.97
2022-07-29T23:31:20.228Z,9.13
2022-07-29T23:33:48.829Z,8.50
2022-07-29T23:36:17.043Z,8.77
2022-07-29T23:38:47.861Z,8.10
2022-07-29T23:41:16.878Z,8.23
2022-07-29T23:43:45.573Z,8.35
2022-07-29T23:46:14.220Z,7.78
2022-07-29T23:48:43.993Z,10.40
2022-07-29T23:51:12.415Z,7.95
2022-07-29T23:53:53.773Z,8.25
2022-07-29T23:56:23.453Z,8.50
2022-07-29T23:58:52.168Z,7.15
